Tiempo atmosférico en la estación meteorológica de Guadalcanal, Sevilla (745 m.)



Fecha
DESCASC
Temp. máxima en grados centígrados (hora)
DESCASC
Temp. mínima en grados centígrados (hora)
DESCASC
Temp. media en grados centígrados
DESCASC
Racha de viento máxima en m/sg (hora)
DESCASC
Velocidad máxima media en intervalos de 10 minutos(hora)
DESCASC
Precipitaciones diarias en mm
DESCASC
Precipitaciones de 00:00 a 06:00 en mm
DESCASC
Precipitaciones de 06:00 a 12:00 en mm
DESCASC
Precipitaciones de 12:00 a 18:00 en mm
DESCASC
Precipitaciones de 18:00 a 24:00 en mm
DESCASC
28-02-2021 15.5 (15:00) 7 (23:59) 11.3 8.61 (10:40) 5.28 (10:50) 0 0 0 0 0
27-02-2021 15.9 (14:10) 4.8 (06:40) 10.3 6.39 (01:20) 4.44 (01:40) 0 0 0 0 0
26-02-2021 14.9 (15:00) 8 (03:00) 11.4 6.11 (23:10) 3.89 (23:50) 0 0 0 0 0
25-02-2021 12.8 (14:10) 6 (00:00) 9.4 10.83 (01:30) 5.56 (01:10) 0 0 0 0 0
24-02-2021 15.4 (16:10) 5.8 (00:00) 10.6 12.22 (13:10) 7.5 (13:50) 0 0 0 0 0
23-02-2021 15.6 (15:10) 3.6 (00:00) 9.6 8.06 (14:40) 4.72 (14:10) 0 0 0 0 0
22-02-2021 12.7 (17:30) 1.6 (00:00) 7.1 8.61 (14:50) 3.61 (01:10) 0 0 0 0 0
21-02-2021 12.4 (01:40) 4.7 (00:00) 8.5 19.72 (03:00) 11.67 (05:20) 14.6 0 12.2 2.4 0
20-02-2021 15.7 (17:00) 7.9 (00:00) 11.8 14.72 (12:40) 9.17 (13:10) 0 0 0 0 0
19-02-2021 16 (14:00) 3.9 (00:00) 10 10 (13:50) 6.39 (14:30) 0 0 0 0 0
18-02-2021 17.7 (15:30) 6.5 (00:00) 12.1 5.83 (16:00) 3.61 (16:10) 0 0 0 0 0
17-02-2021 20.2 (15:30) 6.5 (00:00) 13.4 5.28 (16:30) 3.61 (02:40) 0 0 0 0 0
16-02-2021 17.7 (15:50) 8.1 (00:00) 12.9 6.11 (12:20) 3.89 (12:40) 0 0 0 0 0
15-02-2021 16.8 (16:40) 7.1 (00:00) 11.9 8.33 (10:20) 4.17 (10:10) 0 0 0 0 0
14-02-2021 19.5 (15:20) 8 (00:00) 13.8 6.39 (09:40) 5 (01:50) 0 0 0 0 0
13-02-2021 17.1 (15:30) 6.7 (00:00) 11.9 8.61 (07:10) 5.83 (07:10) 0 0 0 0 0
12-02-2021 13.8 (16:50) 8.3 (00:00) 11.1 11.11 (14:00) 4.72 (13:00) 0.2 0 0.2 0 0
11-02-2021 12.2 (16:50) 9.9 (00:00) 11 5.83 (13:50) 4.17 (13:40) 0.6 0.2 0.4 0 0
10-02-2021 12.5 (15:50) 7.7 (00:00) 10.1 11.39 (00:40) 6.67 (02:30) 17.8 3.6 9.2 1.4 3.6
09-02-2021 9.7 (16:10) 5.7 (00:00) 7.7 15 (13:40) 8.61 (13:40) 7.2 0 1.2 4 2
08-02-2021 11.2 (15:30) 6.2 (00:00) 8.7 14.72 (05:20) 7.78 (02:40) 16.4 16.2 0 0.2 0
07-02-2021 8.6 (14:00) 5.4 (00:00) 7 9.72 (23:00) 6.11 (23:00) 0.6 0.4 0 0.2 0
06-02-2021 8.6 (14:10) 5.8 (00:00) 7.2 9.44 (00:50) 5.56 (00:40) 22.2 4.2 1.2 15.6 1.2
05-02-2021 11.4 (02:40) 7.4 (00:00) 9.4 14.72 (18:40) 9.17 (19:00) 14.8 0 0 9.6 5.2
04-02-2021 12.1 (15:30) 8.3 (00:00) 10.2 10.83 (13:10) 6.94 (13:30) 0.8 0.4 0.4 0 0
03-02-2021 11.2 (16:00) 7.2 (00:00) 9.2 7.78 (16:10) 5.28 (15:50) 0 0 0 0 0
02-02-2021 13.5 (15:00) 7.7 (02:30) 10.6 6.11 (23:20) 4.17 (23:40) 0 0 0 0 0
01-02-2021 14.7 (16:30) 8.3 (00:00) 11.5 10 (02:40) 4.44 (02:40) 1.2 1.2 0 0 0
31-01-2021 11.3 (23:50) 6.5 (00:00) 8.9 8.61 (03:00) 5 (15:10) 6.2 0 0 0.2 6

Gráficas

Temp. máximas Temp. mínimas Temp. medias Precipitaciones Rachas de viento máximas Velocidades máximas media en intervalos de 10 minutos

Datos horarios

Fecha y hora oficial Temperatura (ºC) Velocidad del viento (km/h) Dirección del viento Racha (km/h) Dirección de racha Precipitación (mm) Presión (hPa) Tendencia (hPa) Humedad (%)
2021-03-01 23:00:00 9.9 9 Nordeste 15 Nordeste 0 -- -- 85
2021-03-01 22:00:00 10.2 9 Norte 12 Norte 0 -- -- 83
2021-03-01 21:00:00 10.9 8 Nordeste 12 Nordeste 0 -- -- 79
2021-03-01 20:00:00 11.6 4 Nordeste 6 Nordeste 0 -- -- 77
2021-03-01 19:00:00 12.5 3 Este 10 Nordeste 0 -- -- 72
2021-03-01 18:00:00 14.6 4 Nordeste 14 Este 0 -- -- 61
2021-03-01 17:00:00 15 8 Nordeste 15 Este 0 -- -- 60
2021-03-01 16:00:00 13.7 6 Nordeste 14 Norte 0 -- -- 68
2021-03-01 15:00:00 13 8 Nordeste 17 Nordeste 0 -- -- 72
2021-03-01 14:00:00 12 8 Nordeste 18 Nordeste 0 -- -- 77
2021-03-01 13:00:00 11 10 Nordeste 20 Nordeste 0 -- -- 84
2021-03-01 12:00:00 9.8 12 Nordeste 23 Nordeste 0 -- -- 90
2021-03-01 11:00:00 8.7 13 Nordeste 19 Nordeste 0 -- -- 98
2021-03-01 10:00:00 8.6 12 Nordeste 18 Nordeste 0 -- -- 97
2021-03-01 09:00:00 8.9 5 Este 10 Nordeste 0 -- -- 91
2021-03-01 08:00:00 8.3 3 Este 9 Sudeste 0 -- -- 91
2021-03-01 07:00:00 7.6 3 Este 8 Sudoeste 0 -- -- 95
2021-03-01 06:00:00 8.1 0 Calma 13 Sur 0 -- -- 93
2021-03-01 05:00:00 8.3 7 Sur 17 Sur 0 -- -- 91
2021-03-01 04:00:00 7.7 4 Sur 9 Sur 0 -- -- 93
2021-03-01 03:00:00 6.7 5 Sudoeste 13 Sur 0 -- -- 96
2021-03-01 02:00:00 6.7 3 Sudoeste 9 Sur 0 -- -- 93
2021-03-01 01:00:00 7.3 3 Sudoeste 5 Sudoeste 0 -- -- 92
2021-03-01 00:00:00 7 0 Calma 5 Nordeste 0 -- -- 91
2021-02-28 23:00:00 7.7 3 Nordeste 5 Nordeste 0 -- -- 88
2021-02-28 22:00:00 9.3 4 Nordeste 6 Nordeste 0 -- -- 83
2021-02-28 21:00:00 8.8 4 Nordeste 6 Nordeste 0 -- -- 83
2021-02-28 20:00:00 9.3 4 Nordeste 6 Nordeste 0 -- -- 83
2021-02-28 19:00:00 12.5 5 Este 13 Sudeste 0 -- -- 71
2021-02-28 18:00:00 13.4 7 Sur 19 Sur 0 -- -- 64
2021-02-28 17:00:00 14.5 13 Sur 21 Sur 0 -- -- 61
2021-02-28 16:00:00 14.6 10 Sudoeste 26 Sur 0 -- -- 60
2021-02-28 15:00:00 15.5 15 Sur 27 Sur 0 -- -- 56
2021-02-28 14:00:00 14.5 10 Sur 21 Sur 0 -- -- 60
2021-02-28 13:00:00 11.9 9 Sur 19 Sur 0 -- -- 70
2021-02-28 12:00:00 11.6 12 Sur 26 Sur 0 -- -- 73
2021-02-28 11:00:00 10.4 18 Sur 31 Sur 0 -- -- 78
2021-02-28 10:00:00 9.3 13 Sur 21 Sudeste 0 -- -- 83
2021-02-28 09:00:00 8.6 10 Sur 20 Sudeste 0 -- -- 87
2021-02-28 08:00:00 7.7 9 Sur 21 Sur 0 -- -- 89
2021-02-28 07:00:00 7.9 9 Sur 25 Sur 0 -- -- 86
2021-02-28 06:00:00 8 11 Sur 21 Sudeste 0 -- -- 86
2021-02-28 05:00:00 7.2 3 Sudoeste 16 Sur 0 -- -- 91
2021-02-28 04:00:00 7.8 7 Sudoeste 13 Sudoeste 0 -- -- 88
2021-02-28 03:00:00 7.8 4 Sudoeste 10 Sudoeste 0 -- -- 89
2021-02-28 02:00:00 7.8 5 Sudoeste 11 Oeste 0 -- -- 96
2021-02-28 01:00:00 7.3 5 Sur 10 Sudeste 0 -- -- 100
2021-02-28 00:00:00 8.3 3 Oeste 10 Oeste 0 -- -- 99
2021-02-27 23:00:00 8.2 0 Calma 5 Nordeste 0 -- -- 98
2021-02-27 22:00:00 9 3 Norte 6 Nordeste 0 -- -- 94
2021-02-27 21:00:00 9.9 4 Nordeste 6 Nordeste 0 -- -- 88
2021-02-27 20:00:00 10.2 3 Nordeste 5 Norte 0 -- -- 86
2021-02-27 19:00:00 12.2 0 Calma 5 Este 0 -- -- 75
2021-02-27 18:00:00 13.1 4 Este 13 Nordeste 0 -- -- 66
2021-02-27 17:00:00 14.6 5 Nordeste 13 Nordeste 0 -- -- 64
2021-02-27 16:00:00 14.8 7 Nordeste 13 Nordeste 0 -- -- 63
2021-02-27 15:00:00 15.6 7 Este 13 Nordeste 0 -- -- 59
2021-02-27 14:00:00 15.4 3 Sur 10 Sur 0 -- -- 66
2021-02-27 13:00:00 12.8 4 Sudoeste 9 Sur 0 -- -- 74
2021-02-27 12:00:00 12 3 Sudoeste 14 Sur 0 -- -- 77
2021-02-27 11:00:00 11.5 10 Sur 17 Sur 0 -- -- 76
2021-02-27 10:00:00 10.5 5 Sur 8 Sudoeste 0 -- -- 76
2021-02-27 09:00:00 7.1 0 Calma 4 Norte 0 -- -- 89
2021-02-27 08:00:00 5 0 Calma 3 Sudoeste 0 -- -- 94
2021-02-27 07:00:00 4.9 0 Calma 3 Noroeste 0 -- -- 96
2021-02-27 06:00:00 5.4 0 Calma 6 Sudoeste 0 -- -- 97
2021-02-27 05:00:00 6.2 3 Oeste 4 Norte 0 -- -- 99
2021-02-27 04:00:00 6.3 3 Nordeste 5 Nordeste 0 -- -- 96
2021-02-27 03:00:00 7.4 0 Calma 19 Nordeste 0 -- -- 90
2021-02-27 02:00:00 9.7 14 Nordeste 23 Nordeste 0 -- -- 80
2021-02-27 01:00:00 10.4 14 Norte 21 Norte 0 -- -- 80
2021-02-27 00:00:00 10.7 13 Norte 22 Norte 0 -- -- 80
2021-02-26 23:00:00 10.1 13 Norte 21 Norte 0 -- -- 85
2021-02-26 22:00:00 10.3 8 Norte 15 Noroeste 0 -- -- 81
2021-02-26 21:00:00 10.2 6 Norte 10 Norte 0 -- -- 83
2021-02-26 20:00:00 10.4 6 Norte 9 Noroeste 0 -- -- 86
2021-02-26 19:00:00 11.4 3 Nordeste 9 Nordeste 0 -- -- 85
2021-02-26 18:00:00 13.8 4 Nordeste 10 Este 0 -- -- 72
2021-02-26 17:00:00 14.3 4 Nordeste 11 Este 0 -- -- 69
2021-02-26 16:00:00 14.4 0 Calma 10 Sudoeste 0 -- -- 62
2021-02-26 15:00:00 14.9 3 Sur 13 Sur 0 -- -- 57
2021-02-26 14:00:00 13.5 8 Sudoeste 17 Sudoeste 0 -- -- 64
2021-02-26 13:00:00 13.7 10 Sudoeste 19 Sur 0 -- -- 62
2021-02-26 12:00:00 12.7 6 Sur 12 Sudeste 0 -- -- 67
2021-02-26 11:00:00 12.3 6 Este 12 Sudeste 0 -- -- 69
2021-02-26 10:00:00 10.4 7 Este 14 Este 0 -- -- 84
2021-02-26 09:00:00 9.1 9 Nordeste 16 Nordeste 0 -- -- 93
2021-02-26 08:00:00 10.2 6 Este 15 Sudeste 0 -- -- 82
2021-02-26 07:00:00 10.8 5 Sudeste 17 Este 0 -- -- 74
2021-02-26 06:00:00 9.8 7 Nordeste 13 Nordeste 0 -- -- 85
2021-02-26 05:00:00 9.6 7 Este 12 Nordeste 0 -- -- 85
2021-02-26 04:00:00 8.8 8 Nordeste 11 Nordeste 0 -- -- 90
2021-02-26 03:00:00 8 0 Calma 9 Este 0 -- -- 94
2021-02-26 02:00:00 9 5 Nordeste 9 Sudeste 0 -- -- 87
2021-02-26 01:00:00 8.9 3 Sudeste 11 Sudeste 0 -- -- 88
2021-02-26 00:00:00 8.9 4 Este 11 Este 0 -- -- 89
2021-02-25 23:00:00 8.8 3 Este 9 Este 0 -- -- 93
2021-02-25 22:00:00 9 3 Sur 19 Sudeste 0 -- -- 90
2021-02-25 21:00:00 9.9 11 Sudeste 23 Sudeste 0 -- -- 88
2021-02-25 20:00:00 10.1 7 Este 12 Sudeste 0 -- -- 88
2021-02-25 19:00:00 11.1 3 Este 7 Sudeste 0 -- -- 85
2021-02-25 18:00:00 12.2 2 Oeste 7 Sur 0 -- -- 81
2021-02-25 17:00:00 12.5 5 Sudoeste 12 Sudoeste 0 -- -- 78
2021-02-25 16:00:00 12.2 5 Sudoeste 15 Sur 0 -- -- 77
2021-02-25 15:00:00 11.7 9 Sur 18 Sudoeste 0 -- -- 78
2021-02-25 14:00:00 12.5 8 Sur 18 Sur 0 -- -- 76
2021-02-25 13:00:00 11.6 11 Sur 23 Sur 0 -- -- 78
2021-02-25 12:00:00 11.5 15 Sur 28 Sur 0 -- -- 78
2021-02-25 11:00:00 10.9 6 Sur 18 Sudeste 0 -- -- 79
2021-02-25 10:00:00 9.8 7 Sur 16 Sudeste 0 -- -- 84
2021-02-25 09:00:00 8.5 10 Sudeste 19 Sudeste 0 -- -- 88
2021-02-25 08:00:00 7.1 2 Nordeste 6 Nordeste 0 -- -- 94
2021-02-25 07:00:00 6.2 2 Nordeste 17 Sur 0 -- -- 95
2021-02-25 06:00:00 8 6 Sur 27 Sur 0 -- -- 88
2021-02-25 05:00:00 7.9 8 Sur 26 Sur 0 -- -- 88
2021-02-25 04:00:00 8.1 12 Sur 32 Sur 0 -- -- 88
2021-02-25 03:00:00 8.5 15 Sur 32 Sur 0 -- -- 87
2021-02-25 02:00:00 8.7 18 Sur 39 Sur 0 -- -- 85
2021-02-25 01:00:00 8.7 18 Sur 33 Sur 0 -- -- 85
2021-02-25 00:00:00 9.5 18 Sur 31 Sur 0 -- -- 73
2021-02-24 23:00:00 10.1 11 Sur 24 Sur 0 -- -- 65
2021-02-24 22:00:00 8.1 4 Oeste 19 Sur 0 -- -- 89
2021-02-24 21:00:00 9.7 13 Sur 21 Sur 0 -- -- 83
2021-02-24 20:00:00 9.9 6 Sur 21 Sudoeste 0 -- -- 85
2021-02-24 19:00:00 11.5 11 Sur 27 Sur 0 -- -- 79
2021-02-24 18:00:00 13.8 17 Sur 32 Sur 0 -- -- 67
2021-02-24 17:00:00 14.8 17 Sur 37 Sur 0 -- -- 63
2021-02-24 16:00:00 15 18 Sur 37 Sur 0 -- -- 65
2021-02-24 15:00:00 14.3 25 Sur 40 Sur 0 -- -- 64
2021-02-24 14:00:00 14.1 26 Sur 44 Sur 0 -- -- 64
2021-02-24 13:00:00 13.8 19 Sur 41 Sur 0 -- -- 60
2021-02-24 12:00:00 13.6 18 Sur 30 Sur 0 -- -- 57
2021-02-24 11:00:00 11.7 17 Sudeste 32 Sudeste 0 -- -- 67
2021-02-24 10:00:00 10.2 15 Sudeste 26 Sudeste 0 -- -- 71
2021-02-24 09:00:00 7.5 7 Sudeste 16 Sur 0 -- -- 82
2021-02-24 08:00:00 6.7 4 Sudeste 21 Sudeste 0 -- -- 85
2021-02-24 07:00:00 6.9 8 Sudeste 26 Sudeste 0 -- -- 87
2021-02-24 06:00:00 6.4 8 Sudeste 21 Sudeste 0 -- -- 93
2021-02-24 05:00:00 6.3 5 Sur 17 Sur 0 -- -- 91
2021-02-24 04:00:00 5.9 3 Sudoeste 17 Sudeste 0 -- -- 88
2021-02-24 03:00:00 6.9 8 Sudeste 31 Sur 0 -- -- 84
2021-02-24 02:00:00 7 9 Sur 18 Sur 0 -- -- 83
2021-02-24 01:00:00 5.8 3 Sudoeste 6 Sudoeste 0 -- -- 83
2021-02-24 00:00:00 6.9 5 Sudeste 8 Sudeste 0 -- -- 76
2021-02-23 23:00:00 6.4 0 Calma 13 Este 0 -- -- 78
2021-02-23 22:00:00 8.9 6 Sudeste 18 Sudeste 0 -- -- 65
2021-02-23 21:00:00 9.1 5 Sudeste 12 Sudeste 0 -- -- 64
2021-02-23 20:00:00 8.9 5 Sudeste 10 Sudeste 0 -- -- 60
2021-02-23 19:00:00 11.7 6 Sudeste 22 Sudeste 0 -- -- 51
2021-02-23 18:00:00 14.6 11 Sur 24 Sudeste 0 -- -- 44
2021-02-23 17:00:00 15.3 13 Sur 24 Sudeste 0 -- -- 44
2021-02-23 16:00:00 15.3 13 Sudeste 28 Sudeste 0 -- -- 44
2021-02-23 15:00:00 15.3 12 Sudeste 29 Sur 0 -- -- 45
2021-02-23 14:00:00 14.1 15 Sur 27 Sur 0 -- -- 42
2021-02-23 13:00:00 13.5 11 Sudeste 28 Sudeste 0 -- -- 49
2021-02-23 12:00:00 12.2 9 Este 24 Sudeste 0 -- -- 57
2021-02-23 11:00:00 10.8 8 Sudeste 21 Este 0 -- -- 56
2021-02-23 10:00:00 9 8 Este 15 Este 0 -- -- 69
2021-02-23 09:00:00 6.4 6 Este 13 Este 0 -- -- 78
2021-02-23 08:00:00 5.8 6 Este 10 Este 0 -- -- 78
2021-02-23 07:00:00 5.5 5 Este 9 Este 0 -- -- 80
2021-02-23 06:00:00 4.5 3 Nordeste 7 Este 0 -- -- 87
2021-02-23 05:00:00 4.2 2 Nordeste 6 Este 0 -- -- 89
2021-02-23 04:00:00 3.6 3 Nordeste 8 Sudeste 0 -- -- 93
2021-02-23 03:00:00 4.7 5 Este 8 Este 0 -- -- 87
2021-02-23 02:00:00 4.2 3 Norte 6 Este 0 -- -- 91
2021-02-23 01:00:00 6.5 6 Este 12 Este 0 -- -- 78
2021-02-23 00:00:00 5.5 6 Nordeste 9 Nordeste 0 -- -- 84
2021-02-22 23:00:00 5.3 8 Nordeste 10 Nordeste 0 -- -- 84
2021-02-22 22:00:00 5.6 6 Nordeste 9 Norte 0 -- -- 83
2021-02-22 21:00:00 6.9 6 Norte 9 Norte 0 -- -- 75
2021-02-22 20:00:00 7.5 6 Norte 10 Norte 0 -- -- 71
2021-02-22 19:00:00 9.4 4 Noroeste 14 Oeste 0 -- -- 59
2021-02-22 18:00:00 12 8 Noroeste 20 Oeste 0 -- -- 50
2021-02-22 17:00:00 12.2 9 Noroeste 26 Noroeste 0 -- -- 50
2021-02-22 16:00:00 12.2 10 Noroeste 25 Oeste 0 -- -- 52
2021-02-22 15:00:00 11.8 13 Oeste 31 Oeste 0 -- -- 55
2021-02-22 14:00:00 10.7 6 Noroeste 22 Sudoeste 0 -- -- 59
2021-02-22 13:00:00 10.1 9 Oeste 19 Oeste 0 -- -- 71
2021-02-22 12:00:00 8.7 6 Oeste 15 Oeste 0 -- -- 77
2021-02-22 11:00:00 7.2 6 Oeste 20 Oeste 0 -- -- 87
2021-02-22 10:00:00 5.9 3 Sudoeste 20 Noroeste 0 -- -- 90
2021-02-22 09:00:00 5.2 10 Noroeste 23 Norte 0 -- -- 88
2021-02-22 08:00:00 4.3 10 Norte 20 Noroeste 0 -- -- 82
2021-02-22 07:00:00 4 6 Noroeste 22 Noroeste 0 -- -- 85
2021-02-22 06:00:00 3.1 5 Oeste 16 Noroeste 0 -- -- 94
2021-02-22 05:00:00 3.4 6 Noroeste 19 Oeste 0 -- -- 88
2021-02-22 04:00:00 2.4 2 Sur 22 Oeste 0 -- -- 99
2021-02-22 03:00:00 3.9 9 Noroeste 27 Oeste 0 -- -- 91
2021-02-22 02:00:00 4.3 7 Noroeste 27 Noroeste 0 -- -- 93
2021-02-22 01:00:00 4.4 10 Noroeste 24 Oeste 0 -- -- 94
2021-02-22 00:00:00 4.7 8 Oeste 23 Oeste 0 -- -- 95
2021-02-21 23:00:00 5.3 8 Noroeste 19 Norte 0 -- -- 91
2021-02-21 22:00:00 5.7 8 Oeste 20 Oeste 0 -- -- 89
2021-02-21 21:00:00 6.2 7 Oeste 21 Oeste 0 -- -- 83
2021-02-21 20:00:00 6.4 4 Oeste 14 Noroeste 0 -- -- 85
2021-02-21 19:00:00 6.5 3 Noroeste 28 Oeste 0 -- -- 86
2021-02-21 18:00:00 7.3 9 Oeste 28 Noroeste 0 -- -- 84
2021-02-21 17:00:00 6.4 6 Noroeste 26 Noroeste 0 -- -- 96
2021-02-21 16:00:00 5.6 11 Noroeste 27 Noroeste 0 -- -- 95
2021-02-21 15:00:00 6.3 8 Noroeste 23 Nordeste 0.6 -- -- 96
2021-02-21 14:00:00 6 9 Norte 21 Norte 1 -- -- 95
2021-02-21 13:00:00 5.6 15 Norte 30 Norte 0.8 -- -- 96
2021-02-21 12:00:00 4.9 14 Norte 34 Norte 2.2 -- -- 97
2021-02-21 11:00:00 6.1 17 Norte 39 Sur 6.6 -- -- 98
2021-02-21 10:00:00 8.3 22 Sur 49 Sudoeste 2.6 -- -- 99
2021-02-21 09:00:00 8.3 15 Sudoeste 40 Sur 0.4 -- -- 98
2021-02-21 08:00:00 8.7 23 Sur 56 Sur 0.4 -- -- 95
2021-02-21 07:00:00 9.4 30 Sudoeste 61 Sur 0 -- -- 85
2021-02-21 06:00:00 9.9 35 Sudoeste 67 Sur 0 -- -- 80
2021-02-21 05:00:00 9.8 39 Sudoeste 68 Sudoeste 0 -- -- 81
2021-02-21 04:00:00 10.7 35 Sudoeste 66 Sudoeste 0 -- -- 66
2021-02-21 03:00:00 11 39 Sudoeste 71 Sudoeste 0 -- -- 59
2021-02-21 02:00:00 12.3 32 Sur 59 Sur 0 -- -- 46
2021-02-21 01:00:00 12 23 Sur 40 Sur 0 -- -- 50
2021-02-21 00:00:00 11.8 21 Sur 40 Sur 0 -- -- 52
2021-02-20 23:00:00 12 20 Sur 40 Sur 0 -- -- 56
2021-02-20 22:00:00 12 20 Sur 41 Sudoeste 0 -- -- 63
2021-02-20 21:00:00 11.8 19 Sur 39 Sur 0 -- -- 66
2021-02-20 20:00:00 12.2 19 Sur 42 Sur 0 -- -- 61
2021-02-20 19:00:00 13.1 17 Sudoeste 44 Sudoeste 0 -- -- 49
2021-02-20 18:00:00 14.8 23 Sudoeste 45 Sudoeste 0 -- -- 36
2021-02-20 17:00:00 15.7 19 Sur 41 Sudoeste 0 -- -- 41
2021-02-20 16:00:00 14.4 23 Sudoeste 52 Sur 0 -- -- 52
2021-02-20 15:00:00 13.5 26 Sudoeste 49 Sur 0 -- -- 46
2021-02-20 14:00:00 13.1 29 Sudoeste 49 Sur 0 -- -- 47
2021-02-20 13:00:00 13.5 31 Sudoeste 53 Sur 0 -- -- 48
2021-02-20 12:00:00 12.7 29 Sudoeste 51 Sudoeste 0 -- -- 54
2021-02-20 11:00:00 11.6 28 Sudoeste 46 Sudoeste 0 -- -- 61
2021-02-20 10:00:00 9.5 20 Sudoeste 36 Sudoeste 0 -- -- 74
2021-02-20 09:00:00 8.4 19 Sudoeste 35 Sudoeste 0 -- -- 85
2021-02-20 08:00:00 8.1 23 Sudoeste 39 Sudoeste 0 -- -- 97
2021-02-20 07:00:00 8.6 22 Sudoeste 46 Sudoeste 0 -- -- 96
2021-02-20 06:00:00 8.2 23 Sudoeste 37 Sur 0 -- -- 95
2021-02-20 05:00:00 8.2 25 Sudoeste 43 Sur 0 -- -- 94
2021-02-20 04:00:00 8.2 24 Sudoeste 36 Sudoeste 0 -- -- 99
2021-02-20 03:00:00 8.5 21 Sudoeste 46 Sudoeste 0 -- -- 99
2021-02-20 02:00:00 8.6 24 Sudoeste 46 Sur 0 -- -- 97
2021-02-20 01:00:00 8.9 26 Sudoeste 42 Sudoeste 0 -- -- 98
2021-02-20 00:00:00 8.7 18 Sudoeste 27 Sudoeste 0 -- -- 99
2021-02-19 23:00:00 9.1 16 Sudoeste 30 Sur 0 -- -- 93
2021-02-19 22:00:00 9.5 15 Sudoeste 23 Sudoeste 0 -- -- 89
2021-02-19 21:00:00 9 9 Oeste 15 Oeste 0 -- -- 87
2021-02-19 20:00:00 9.4 7 Oeste 23 Sudoeste 0 -- -- 85
2021-02-19 19:00:00 11 12 Sudoeste 28 Sudoeste 0 -- -- 75
2021-02-19 18:00:00 12.9 11 Sudoeste 23 Sudoeste 0 -- -- 70
2021-02-19 17:00:00 13.5 14 Sudoeste 31 Sudoeste 0 -- -- 66
2021-02-19 16:00:00 14.8 19 Sudoeste 35 Sudoeste 0 -- -- 68
2021-02-19 15:00:00 15.3 22 Sudoeste 35 Sudoeste 0 -- -- 58
2021-02-19 14:00:00 16 18 Sudoeste 36 Sudoeste 0 -- -- 54
2021-02-19 13:00:00 13.9 15 Sudoeste 23 Sudoeste 0 -- -- 65
2021-02-19 12:00:00 12 13 Sudoeste 21 Sudoeste 0 -- -- 72
2021-02-19 11:00:00 10.3 9 Sudoeste 13 Sudoeste 0 -- -- 79
2021-02-19 10:00:00 9.4 5 Sudoeste 10 Oeste 0 -- -- 82
2021-02-19 09:00:00 5.9 3 Sudoeste 8 Oeste 0 -- -- 100
2021-02-19 08:00:00 4 0 Calma 3 Oeste 0 -- -- 100
2021-02-19 07:00:00 5.7 0 Calma 8 Oeste 0 -- -- 100
2021-02-19 06:00:00 5.6 3 Sudoeste 4 Oeste 0 -- -- 99
2021-02-19 05:00:00 6.2 0 Calma 5 Sudoeste 0 -- -- 96
2021-02-19 04:00:00 6.8 3 Sudoeste 5 Sur 0 -- -- 98
2021-02-19 03:00:00 6.3 0 Calma 6 Sudoeste 0 -- -- 95
2021-02-19 02:00:00 6.6 0 Calma 3 Sudoeste 0 -- -- 100
2021-02-19 01:00:00 8.1 3 Sudoeste 5 Oeste 0 -- -- 100
2021-02-19 00:00:00 8.3 3 Oeste 5 Oeste 0 -- -- 100
2021-02-18 23:00:00 8.1 3 Sudoeste 5 Sudoeste 0 -- -- 100
2021-02-18 22:00:00 7.7 0 Calma 3 Sudoeste 0 -- -- 99
2021-02-18 21:00:00 8.6 0 Calma 6 Sudoeste 0 -- -- 96
2021-02-18 20:00:00 10.1 4 Sudoeste 9 Sudoeste 0 -- -- 92
2021-02-18 19:00:00 12.4 6 Sudoeste 17 Sudoeste 0 -- -- 80
2021-02-18 18:00:00 15.6 11 Sudoeste 19 Sudoeste 0 -- -- 62
2021-02-18 17:00:00 16.8 11 Sudoeste 19 Sudoeste 0 -- -- 48
2021-02-18 16:00:00 17.7 11 Sudoeste 21 Sudoeste 0 -- -- 40
2021-02-18 15:00:00 17.2 10 Oeste 19 Oeste 0 -- -- 33
2021-02-18 14:00:00 17.3 8 Sudoeste 16 Sudoeste 0 -- -- 34
2021-02-18 13:00:00 16.4 6 Sudoeste 15 Sur 0 -- -- 45
2021-02-18 12:00:00 14.6 7 Oeste 13 Sudoeste 0 -- -- 41
2021-02-18 11:00:00 13.5 6 Sudoeste 12 Sudoeste 0 -- -- 58
2021-02-18 10:00:00 11.9 3 Sudoeste 6 Sudoeste 0 -- -- 58
2021-02-18 09:00:00 8.6 0 Calma 5 Noroeste 0 -- -- 61
2021-02-18 08:00:00 6.5 3 Norte 13 Norte 0 -- -- 63
2021-02-18 07:00:00 8.1 6 Norte 9 Norte 0 -- -- 52
2021-02-18 06:00:00 9.9 8 Norte 10 Norte 0 -- -- 44
2021-02-18 05:00:00 9.1 8 Norte 10 Norte 0 -- -- 45
2021-02-18 04:00:00 9 4 Noroeste 9 Noroeste 0 -- -- 49
2021-02-18 03:00:00 10.2 5 Noroeste 9 Noroeste 0 -- -- 43
2021-02-18 02:00:00 7.6 0 Calma 5 Norte 0 -- -- 58
2021-02-18 01:00:00 9.6 3 Norte 11 Noroeste 0 -- -- 50
2021-02-18 00:00:00 10.6 3 Noroeste 14 Noroeste 0 -- -- 60
2021-02-17 23:00:00 10.6 6 Noroeste 9 Noroeste 0 -- -- 79
2021-02-17 22:00:00 10.9 3 Noroeste 10 Noroeste 0 -- -- 79
2021-02-17 21:00:00 11.4 3 Oeste 8 Oeste 0 -- -- 71
2021-02-17 20:00:00 11 3 Norte 4 Nordeste 0 -- -- 77
2021-02-17 19:00:00 15.5 0 Calma 12 Sudoeste 0 -- -- 58
2021-02-17 18:00:00 18.5 9 Sudoeste 19 Sudoeste 0 -- -- 43
2021-02-17 17:00:00 19.6 9 Sudoeste 19 Oeste 0 -- -- 36
2021-02-17 16:00:00 19.8 9 Oeste 17 Sudoeste 0 -- -- 35
2021-02-17 15:00:00 19.9 8 Sudoeste 18 Sudoeste 0 -- -- 40
2021-02-17 14:00:00 19.2 9 Sudoeste 16 Sudoeste 0 -- -- 40
2021-02-17 13:00:00 18.2 9 Sudoeste 13 Sudoeste 0 -- -- 33
2021-02-17 12:00:00 16.4 6 Sudoeste 9 Sudoeste 0 -- -- 45
2021-02-17 11:00:00 14.7 6 Sudoeste 9 Sudoeste 0 -- -- 55
2021-02-17 10:00:00 13.2 4 Sudoeste 6 Sudoeste 0 -- -- 63
2021-02-17 09:00:00 9.2 2 Sudoeste 5 Nordeste 0 -- -- 78
2021-02-17 08:00:00 6.8 4 Nordeste 5 Nordeste 0 -- -- 86
2021-02-17 07:00:00 7.4 3 Norte 10 Norte 0 -- -- 83
2021-02-17 06:00:00 7.5 5 Norte 10 Nordeste 0 -- -- 84
2021-02-17 05:00:00 7.9 9 Nordeste 15 Nordeste 0 -- -- 87
2021-02-17 04:00:00 8.5 10 Nordeste 15 Nordeste 0 -- -- 85
2021-02-17 03:00:00 9 13 Nordeste 17 Norte 0 -- -- 84
2021-02-17 02:00:00 9.2 8 Norte 13 Norte 0 -- -- 88
2021-02-17 01:00:00 7.9 3 Norte 7 Oeste 0 -- -- 91
2021-02-17 00:00:00 8.7 5 Oeste 8 Oeste 0 -- -- 87
2021-02-16 23:00:00 8.6 3 Nordeste 5 Nordeste 0 -- -- 87
2021-02-16 22:00:00 8.7 0 Calma 3 Sudoeste 0 -- -- 87
2021-02-16 21:00:00 9.5 0 Calma 3 Norte 0 -- -- 86
2021-02-16 20:00:00 9.9 0 Calma 2 Sudoeste 0 -- -- 84
2021-02-16 19:00:00 13.5 2 Sudoeste 9 Sudoeste 0 -- -- 69
2021-02-16 18:00:00 16.6 6 Sudoeste 13 Sudoeste 0 -- -- 56
2021-02-16 17:00:00 17.3 8 Sudoeste 15 Sudoeste 0 -- -- 51
2021-02-16 16:00:00 17.7 8 Sudoeste 15 Sudoeste 0 -- -- 50
2021-02-16 15:00:00 17.2 8 Sudoeste 18 Oeste 0 -- -- 49
2021-02-16 14:00:00 16.7 10 Sudoeste 18 Sudoeste 0 -- -- 50
2021-02-16 13:00:00 15.7 13 Sudoeste 22 Oeste 0 -- -- 50
2021-02-16 12:00:00 14.3 12 Sudoeste 18 Sudoeste 0 -- -- 51
2021-02-16 11:00:00 13.2 11 Sudoeste 17 Sudoeste 0 -- -- 51
2021-02-16 10:00:00 12.1 8 Sudoeste 12 Oeste 0 -- -- 52
2021-02-16 09:00:00 9.7 8 Sudoeste 15 Oeste 0 -- -- 56
2021-02-16 08:00:00 8.1 8 Sudoeste 13 Oeste 0 -- -- 62
2021-02-16 07:00:00 8.7 9 Oeste 15 Sudoeste 0 -- -- 57
2021-02-16 06:00:00 9.4 9 Sudoeste 17 Sudoeste 0 -- -- 55
2021-02-16 05:00:00 9.2 10 Sudoeste 19 Sudoeste 0 -- -- 59
2021-02-16 04:00:00 9 10 Sudoeste 15 Sudoeste 0 -- -- 59
2021-02-16 03:00:00 9 8 Sudoeste 15 Sudoeste 0 -- -- 61
2021-02-16 02:00:00 9.7 9 Sudoeste 16 Sudoeste 0 -- -- 56
2021-02-16 01:00:00 9.8 8 Sudoeste 18 Sudoeste 0 -- -- 56
2021-02-16 00:00:00 10.7 10 Sudoeste 20 Sudoeste 0 -- -- 53
2021-02-15 23:00:00 9.6 10 Sudoeste 22 Sudoeste 0 -- -- 63
2021-02-15 22:00:00 9.9 11 Sudoeste 23 Sudeste 0 -- -- 61
2021-02-15 21:00:00 9.9 10 Sudeste 20 Sur 0 -- -- 64
2021-02-15 20:00:00 10.2 3 Sudoeste 12 Sur 0 -- -- 68
2021-02-15 19:00:00 12.6 5 Sur 23 Sur 0 -- -- 62
2021-02-15 18:00:00 15.6 13 Sur 23 Sudeste 0 -- -- 55
2021-02-15 17:00:00 16.6 14 Sur 26 Sudeste 0 -- -- 53
2021-02-15 16:00:00 16.3 12 Sur 23 Sur 0 -- -- 56
2021-02-15 15:00:00 16.4 12 Sur 22 Sur 0 -- -- 55
2021-02-15 14:00:00 16 12 Sur 21 Sudeste 0 -- -- 52
2021-02-15 13:00:00 15.3 13 Sudeste 23 Sudeste 0 -- -- 54
2021-02-15 12:00:00 13.2 15 Sur 26 Sur 0 -- -- 58
2021-02-15 11:00:00 12.1 12 Sudeste 30 Sudeste 0 -- -- 61
2021-02-15 10:00:00 10.2 15 Sudeste 28 Sudeste 0 -- -- 66
2021-02-15 09:00:00 7.9 13 Sudeste 26 Sudeste 0 -- -- 74
2021-02-15 08:00:00 7.1 10 Sudeste 21 Sudeste 0 -- -- 79
2021-02-15 07:00:00 7.5 12 Sudeste 23 Sur 0 -- -- 77
2021-02-15 06:00:00 7.3 8 Sudeste 24 Sudeste 0 -- -- 76
2021-02-15 05:00:00 7.4 9 Sudeste 25 Sudeste 0 -- -- 75
2021-02-15 04:00:00 7.9 13 Sudeste 26 Sudeste 0 -- -- 73
2021-02-15 03:00:00 8.1 6 Sudeste 16 Sudeste 0 -- -- 72
2021-02-15 02:00:00 8.6 7 Sudeste 19 Sur 0 -- -- 68
2021-02-15 01:00:00 9 7 Sur 23 Sur 0 -- -- 68
2021-02-15 00:00:00 9.1 9 Sur 23 Sudeste 0 -- -- 66
2021-02-14 23:00:00 9.1 4 Sudoeste 15 Sur 0 -- -- 63
2021-02-14 22:00:00 10 5 Sudeste 16 Sudeste 0 -- -- 57
2021-02-14 21:00:00 10.4 5 Sur 13 Sur 0 -- -- 59
2021-02-14 20:00:00 11.3 5 Sudeste 11 Sudeste 0 -- -- 69
2021-02-14 19:00:00 14.5 5 Sudeste 13 Sur 0 -- -- 48
2021-02-14 18:00:00 17.8 8 Sur 16 Sur 0 -- -- 40
2021-02-14 17:00:00 18.8 9 Sur 18 Sur 0 -- -- 41
2021-02-14 16:00:00 18.6 7 Este 16 Sur 0 -- -- 46
2021-02-14 15:00:00 19.2 6 Sur 17 Sudeste 0 -- -- 41
2021-02-14 14:00:00 19 9 Sur 15 Sur 0 -- -- 39
2021-02-14 13:00:00 17.6 8 Sur 16 Sur 0 -- -- 44
2021-02-14 12:00:00 15.8 8 Este 14 Este 0 -- -- 53
2021-02-14 11:00:00 14 7 Este 19 Este 0 -- -- 56
2021-02-14 10:00:00 13.1 11 Este 23 Este 0 -- -- 53
2021-02-14 09:00:00 10.3 11 Nordeste 18 Este 0 -- -- 59
2021-02-14 08:00:00 9.1 10 Nordeste 16 Nordeste 0 -- -- 63
2021-02-14 07:00:00 8.3 12 Nordeste 17 Este 0 -- -- 67
2021-02-14 06:00:00 10.2 9 Nordeste 15 Este 0 -- -- 57
2021-02-14 05:00:00 8.1 9 Nordeste 18 Nordeste 0 -- -- 68
2021-02-14 04:00:00 9.2 14 Nordeste 19 Nordeste 0 -- -- 64
2021-02-14 03:00:00 9.6 13 Nordeste 22 Norte 0 -- -- 59
2021-02-14 02:00:00 9.5 18 Nordeste 23 Nordeste 0 -- -- 57
2021-02-14 01:00:00 9.1 12 Nordeste 15 Norte 0 -- -- 59
2021-02-14 00:00:00 8.4 10 Nordeste 13 Norte 0 -- -- 69
2021-02-13 23:00:00 9.2 9 Nordeste 15 Norte 0 -- -- 62
2021-02-13 22:00:00 9.5 13 Nordeste 20 Norte 0 -- -- 66
2021-02-13 21:00:00 11.1 15 Norte 23 Norte 0 -- -- 50
2021-02-13 20:00:00 10.4 7 Norte 20 Norte 0 -- -- 51
2021-02-13 19:00:00 11.9 13 Norte 18 Norte 0 -- -- 36
2021-02-13 18:00:00 15.4 6 Norte 18 Norte 0 -- -- 33
2021-02-13 17:00:00 16.4 10 Norte 18 Norte 0 -- -- 33
2021-02-13 16:00:00 16.6 11 Norte 22 Norte 0 -- -- 43
2021-02-13 15:00:00 16.6 7 Norte 18 Nordeste 0 -- -- 35
2021-02-13 14:00:00 14.5 9 Nordeste 15 Norte 0 -- -- 53
2021-02-13 13:00:00 14.7 6 Nordeste 12 Nordeste 0 -- -- 60
2021-02-13 08:00:00 7 15 Norte 31 Norte 0 -- -- 100
2021-02-13 07:00:00 6.9 19 Norte 27 Norte 0 -- -- 98
2021-02-13 06:00:00 7.3 14 Norte 22 Norte 0 -- -- 94
2021-02-13 05:00:00 7.7 13 Norte 22 Norte 0 -- -- 92
2021-02-13 04:00:00 7.8 13 Norte 23 Norte 0 -- -- 91
2021-02-13 03:00:00 8 14 Norte 26 Norte 0 -- -- 89
2021-02-13 02:00:00 8.3 17 Norte 30 Norte 0 -- -- 87
2021-02-13 01:00:00 8.3 17 Norte 26 Norte 0 -- -- 86
2021-02-13 00:00:00 8.4 10 Norte 20 Norte 0 -- -- 88
2021-02-12 23:00:00 9.1 11 Norte 21 Norte 0 -- -- 84
2021-02-12 22:00:00 9.1 8 Norte 20 Noroeste 0 -- -- 87
2021-02-12 21:00:00 8.7 5 Noroeste 14 Noroeste 0 -- -- 88
2021-02-12 20:00:00 9.2 4 Noroeste 14 Noroeste 0 -- -- 84
2021-02-12 19:00:00 10.1 6 Noroeste 23 Norte 0 -- -- 78
2021-02-12 18:00:00 12.7 7 Norte 19 Norte 0 -- -- 68
2021-02-12 17:00:00 13.2 10 Norte 21 Norte 0 -- -- 65
2021-02-12 16:00:00 13.7 10 Norte 23 Noroeste 0 -- -- 64
2021-02-12 15:00:00 13.4 10 Noroeste 31 Noroeste 0 -- -- 68
2021-02-12 14:00:00 12.8 13 Norte 40 Norte 0 -- -- 69
2021-02-12 13:00:00 11.9 17 Norte 30 Norte 0 -- -- 74
2021-02-12 12:00:00 11.1 14 Norte 29 Norte 0 -- -- 82
2021-02-12 11:00:00 10.4 12 Norte 26 Noroeste 0 -- -- 88
2021-02-12 10:00:00 8.7 8 Noroeste 22 Noroeste 0 -- -- 94
2021-02-12 09:00:00 8.3 5 Noroeste 21 Noroeste 0 -- -- 96
2021-02-12 08:00:00 8.5 8 Oeste 21 Noroeste 0.2 -- -- 98
2021-02-12 07:00:00 9.6 14 Noroeste 35 Noroeste 0 -- -- 100
2021-02-12 06:00:00 10.4 8 Sudoeste 19 Sudoeste 0 -- -- 100
2021-02-12 05:00:00 10.3 10 Sudoeste 24 Sudoeste 0 -- -- 100
2021-02-12 04:00:00 10.2 10 Sudoeste 18 Sur 0 -- -- 100
2021-02-12 03:00:00 10.2 9 Sudoeste 17 Sudoeste 0 -- -- 100
2021-02-12 02:00:00 10.1 7 Sudoeste 18 Sudoeste 0 -- -- 100
2021-02-12 01:00:00 10.6 10 Sudoeste 18 Sudoeste 0 -- -- 100
2021-02-12 00:00:00 10.9 9 Sudoeste 16 Sur 0 -- -- 100
2021-02-11 23:00:00 11.1 7 Sudoeste 14 Oeste 0 -- -- 100
2021-02-11 22:00:00 11.2 9 Sudoeste 15 Sudoeste 0 -- -- 100
2021-02-11 21:00:00 11.2 6 Sudoeste 11 Sur 0 -- -- 100
2021-02-11 20:00:00 11.4 5 Sudoeste 10 Sudoeste 0 -- -- 100
2021-02-11 19:00:00 11.6 6 Sudoeste 12 Sudoeste 0 -- -- 97
2021-02-11 18:00:00 12 5 Sudoeste 11 Sudoeste 0 -- -- 99
2021-02-11 17:00:00 12.2 7 Sudoeste 13 Sudoeste 0 -- -- 97
2021-02-11 16:00:00 11.7 10 Sudoeste 20 Sudoeste 0 -- -- 100
2021-02-11 15:00:00 11.4 10 Sudoeste 21 Sudoeste 0 -- -- 100
2021-02-11 14:00:00 11.5 14 Sudoeste 21 Sudoeste 0 -- -- 100
2021-02-11 13:00:00 11.3 12 Sudoeste 19 Sudoeste 0 -- -- 100
2021-02-11 12:00:00 11 10 Sudoeste 15 Sudoeste 0 -- -- 100
2021-02-11 11:00:00 10.6 10 Sudoeste 17 Sudoeste 0 -- -- 100
2021-02-11 10:00:00 10.2 8 Sudoeste 17 Sudoeste 0 -- -- 100
2021-02-11 09:00:00 10.1 6 Sudoeste 17 Sudoeste 0.2 -- -- 100
2021-02-11 08:00:00 10.1 8 Sudoeste 15 Sudoeste 0.2 -- -- 100
2021-02-11 07:00:00 10.1 8 Sudoeste 12 Oeste 0 -- -- 100
2021-02-11 06:00:00 10 4 Sudoeste 9 Oeste 0 -- -- 100
2021-02-11 05:00:00 9.9 6 Oeste 14 Noroeste 0 -- -- 100
2021-02-11 04:00:00 10.2 6 Oeste 13 Oeste 0 -- -- 100
2021-02-11 03:00:00 10.7 3 Sudoeste 10 Sudoeste 0 -- -- 100
2021-02-11 02:00:00 10.9 4 Sudoeste 14 Sudoeste 0 -- -- 100
2021-02-11 01:00:00 11.1 8 Sudoeste 14 Sudoeste 0.2 -- -- 100
2021-02-11 00:00:00 11.6 7 Sudoeste 17 Sudoeste 1.4 -- -- 100
2021-02-10 23:00:00 11.8 8 Oeste 21 Sudoeste 0.4 -- -- 100
2021-02-10 22:00:00 12 11 Sudoeste 22 Sur 0.8 -- -- 100
2021-02-10 21:00:00 11.9 4 Sudoeste 13 Oeste 0.8 -- -- 100
2021-02-10 20:00:00 11.9 6 Oeste 14 Noroeste 0.2 -- -- 100
2021-02-10 19:00:00 11.9 5 Oeste 13 Oeste 0 -- -- 100
2021-02-10 18:00:00 11.9 8 Oeste 21 Oeste 0 -- -- 100
2021-02-10 17:00:00 12 9 Oeste 22 Oeste 0 -- -- 100
2021-02-10 16:00:00 12.3 10 Oeste 26 Noroeste 0.2 -- -- 100
2021-02-10 15:00:00 12.1 12 Oeste 28 Oeste 0.2 -- -- 100
2021-02-10 14:00:00 11.7 9 Oeste 23 Oeste 0.2 -- -- 100
2021-02-10 13:00:00 11.2 10 Oeste 21 Oeste 0.8 -- -- 100
2021-02-10 12:00:00 10.8 9 Oeste 23 Oeste 0.4 -- -- 100
2021-02-10 11:00:00 10.2 11 Oeste 21 Oeste 1 -- -- 100
2021-02-10 10:00:00 9.8 8 Oeste 24 Sudoeste 3.2 -- -- 100
2021-02-10 09:00:00 9.3 11 Sudoeste 23 Sudoeste 1 -- -- 100
2021-02-10 08:00:00 8.8 14 Sudoeste 25 Sudoeste 1.6 -- -- 100
2021-02-10 07:00:00 8.3 11 Sudoeste 21 Oeste 2 -- -- 100
2021-02-10 06:00:00 8.3 12 Sudoeste 28 Sudoeste 3.2 -- -- 100
2021-02-10 05:00:00 8.2 15 Sudoeste 37 Sudoeste 0.4 -- -- 100
2021-02-10 04:00:00 8 20 Sudoeste 33 Sudoeste 0 -- -- 100
2021-02-10 03:00:00 8.1 19 Sudoeste 40 Sudoeste 0 -- -- 96
2021-02-10 02:00:00 8.1 19 Sudoeste 36 Sudoeste 0 -- -- 92
2021-02-10 01:00:00 8 18 Sudoeste 41 Sudoeste 0 -- -- 95
2021-02-10 00:00:00 7.9 15 Sudoeste 34 Sudoeste 0 -- -- 98
2021-02-09 23:00:00 8.4 18 Sudoeste 41 Sudoeste 0 -- -- 97
2021-02-09 22:00:00 8.3 19 Sudoeste 35 Sudoeste 0 -- -- 98
2021-02-09 21:00:00 8.4 19 Sudoeste 31 Sudoeste 0 -- -- 100
2021-02-09 20:00:00 9 14 Sudoeste 29 Sudoeste 0 -- -- 100
2021-02-09 19:00:00 9.2 12 Sudoeste 31 Sudoeste 2 -- -- 100
2021-02-09 18:00:00 9.1 13 Sudoeste 34 Sudoeste 0.8 -- -- 100
2021-02-09 17:00:00 9.1 21 Sudoeste 42 Sudoeste 0.2 -- -- 100
2021-02-09 16:00:00 -- 28 Sudoeste 50 Sudoeste 0 -- -- --
2021-02-09 15:00:00 9.2 27 Sudoeste 50 Sudoeste 0.6 -- -- 100
2021-02-09 14:00:00 9.1 26 Sudoeste 54 Sudoeste 1.8 -- -- 100
2021-02-09 13:00:00 9.1 30 Sudoeste 50 Sudoeste 0.6 -- -- 100
2021-02-09 12:00:00 8.4 27 Sudoeste 50 Sudoeste 0.2 -- -- 100
2021-02-09 11:00:00 8.4 29 Sudoeste 48 Sudoeste 0.4 -- -- 100
2021-02-09 10:00:00 8 23 Sudoeste 51 Sudoeste 0 -- -- 100
2021-02-09 09:00:00 7.7 25 Sudoeste 40 Sudoeste 0.2 -- -- 100
2021-02-09 08:00:00 7.2 26 Sudoeste 47 Sudoeste 0 -- -- 100
2021-02-09 07:00:00 7.4 25 Sudoeste 41 Sudoeste 0.4 -- -- 100
2021-02-09 06:00:00 7.4 19 Sudoeste 33 Sudoeste 0 -- -- 100
2021-02-09 05:00:00 7.1 17 Sudoeste 31 Sudoeste 0 -- -- 100
2021-02-09 04:00:00 7 20 Sudoeste 35 Sudoeste 0 -- -- 100
2021-02-09 03:00:00 6.8 16 Sudoeste 27 Sudoeste 0 -- -- 100
2021-02-09 02:00:00 6.1 13 Sudoeste 24 Sudoeste 0 -- -- 100
2021-02-09 01:00:00 5.8 9 Sudoeste 22 Sudoeste 0 -- -- 100
2021-02-09 00:00:00 6.5 8 Sudoeste 18 Sudoeste 0 -- -- 99
2021-02-08 23:00:00 6.5 14 Sudoeste 23 Sudoeste 0 -- -- 100
2021-02-08 22:00:00 6.7 8 Oeste 19 Sudoeste 0 -- -- 95
2021-02-08 21:00:00 7.1 8 Sudoeste 19 Oeste 0 -- -- 92
2021-02-08 20:00:00 7.5 9 Oeste 25 Noroeste 0 -- -- 89
2021-02-08 19:00:00 8.2 13 Oeste 35 Oeste 0 -- -- 89
2021-02-08 18:00:00 9.7 16 Oeste 31 Oeste 0 -- -- 77
2021-02-08 17:00:00 10.5 17 Oeste 35 Oeste 0 -- -- 72
2021-02-08 16:00:00 10.7 16 Oeste 42 Sudoeste 0 -- -- 72
2021-02-08 15:00:00 11 18 Oeste 49 Oeste 0 -- -- 71
2021-02-08 14:00:00 10.7 17 Oeste 40 Oeste 0 -- -- 74
2021-02-08 13:00:00 7.8 13 Oeste 38 Oeste 0.2 -- -- 99
2021-02-08 12:00:00 8.5 15 Oeste 31 Oeste 0 -- -- 89
2021-02-08 11:00:00 7.1 9 Sudoeste 28 Sudoeste 0 -- -- 95
2021-02-08 10:00:00 6.8 12 Oeste 32 Sudoeste 0 -- -- 97
2021-02-08 09:00:00 6.6 12 Sudoeste 30 Oeste 0 -- -- 99
2021-02-08 08:00:00 6.5 13 Oeste 28 Oeste 0 -- -- 98
2021-02-08 07:00:00 6.3 14 Noroeste 41 Noroeste 0 -- -- 97
2021-02-08 06:00:00 6.5 16 Noroeste 53 Oeste 5 -- -- 100
2021-02-08 05:00:00 9.1 17 Sudoeste 45 Sudoeste 7.8 -- -- 100
2021-02-08 04:00:00 8.7 27 Sudoeste 42 Sudoeste 2.6 -- -- 100
2021-02-08 03:00:00 8 24 Sudoeste 41 Sur 0.8 -- -- 100
2021-02-08 02:00:00 7.4 23 Sudoeste 39 Sudoeste 0 -- -- 100
2021-02-08 01:00:00 6.8 19 Sudoeste 36 Sudoeste 0 -- -- 100
2021-02-08 00:00:00 6.3 14 Sudoeste 31 Sudoeste 0 -- -- 100
2021-02-07 23:00:00 6.2 22 Sudoeste 35 Sur 0 -- -- 100
2021-02-07 22:00:00 6.1 20 Sudoeste 31 Sudoeste 0 -- -- 100
2021-02-07 21:00:00 6.4 18 Sudoeste 30 Oeste 0 -- -- 95
2021-02-07 20:00:00 6.5 17 Sudoeste 26 Sudoeste 0 -- -- 92
2021-02-07 19:00:00 6.6 13 Sudoeste 28 Sudoeste 0 -- -- 87
2021-02-07 18:00:00 6.7 10 Sudoeste 27 Oeste 0 -- -- 84
2021-02-07 17:00:00 6.9 15 Oeste 30 Oeste 0 -- -- 78
2021-02-07 16:00:00 7.2 14 Oeste 31 Oeste 0 -- -- 77
2021-02-07 15:00:00 8 15 Oeste 32 Oeste 0 -- -- 72
2021-02-07 14:00:00 8.6 15 Oeste 30 Oeste 0.2 -- -- 73
2021-02-07 13:00:00 7.4 6 Oeste 18 Oeste 0 -- -- 87
2021-02-07 12:00:00 6.2 10 Oeste 20 Oeste 0 -- -- 94
2021-02-07 11:00:00 6.4 5 Noroeste 19 Oeste 0 -- -- 96
2021-02-07 10:00:00 5.4 8 Oeste 18 Oeste 0 -- -- 100
2021-02-07 09:00:00 6.1 3 Noroeste 17 Noroeste 0 -- -- 99
2021-02-07 08:00:00 6.1 5 Oeste 22 Norte 0 -- -- 99
2021-02-07 07:00:00 6.3 15 Norte 24 Norte 0 -- -- 92
2021-02-07 06:00:00 6.3 6 Norte 14 Noroeste 0 -- -- 95
2021-02-07 05:00:00 6.5 4 Oeste 11 Noroeste 0 -- -- 100
2021-02-07 04:00:00 6.5 4 Noroeste 12 Noroeste 0 -- -- 100
2021-02-07 03:00:00 6.5 3 Noroeste 13 Norte 0.4 -- -- 100
2021-02-07 02:00:00 6.3 3 Norte 12 Norte 0 -- -- 100
2021-02-07 01:00:00 6.1 0 Calma 8 Noroeste 0 -- -- 100
2021-02-07 00:00:00 6.1 0 Calma 8 Oeste 0 -- -- 100
2021-02-06 23:00:00 5.9 0 Calma 7 Oeste 0 -- -- 100
2021-02-06 22:00:00 5.9 3 Oeste 7 Sudoeste 0 -- -- 100
2021-02-06 21:00:00 5.9 3 Oeste 14 Oeste 0 -- -- 98
2021-02-06 20:00:00 6.3 5 Oeste 14 Oeste 0 -- -- 100
2021-02-06 19:00:00 6.8 3 Noroeste 12 Oeste 1.2 -- -- 100
2021-02-06 18:00:00 7.4 5 Oeste 17 Sudoeste 0 -- -- 100
2021-02-06 17:00:00 7.5 5 Oeste 18 Oeste 3.8 -- -- 100
2021-02-06 16:00:00 7.5 3 Sudoeste 22 Sudoeste 8.4 -- -- 100
2021-02-06 15:00:00 7.8 9 Sudoeste 24 Sudoeste 2.6 -- -- 100
2021-02-06 14:00:00 7.9 15 Sudoeste 24 Sudoeste 0.8 -- -- 100
2021-02-06 13:00:00 7.6 14 Sudoeste 23 Sudoeste 0 -- -- 100
2021-02-06 12:00:00 7 11 Sudoeste 22 Sudoeste 0.6 -- -- 100
2021-02-06 11:00:00 6.8 10 Sudoeste 26 Sudoeste 0 -- -- 100
2021-02-06 10:00:00 6.4 16 Sudoeste 29 Sudoeste 0.2 -- -- 100
2021-02-06 09:00:00 6.3 14 Sudoeste 23 Sudoeste 0 -- -- 100
2021-02-06 08:00:00 6.1 14 Sudoeste 25 Sudoeste 0.2 -- -- 100
2021-02-06 07:00:00 6 14 Sudoeste 26 Sudoeste 0.2 -- -- 100
2021-02-06 06:00:00 6 15 Sudoeste 30 Sudoeste 0 -- -- 100
2021-02-06 05:00:00 6.6 18 Sudoeste 30 Sudoeste 0 -- -- 100
2021-02-06 04:00:00 7.4 15 Sudoeste 23 Sudoeste 0.4 -- -- 100
2021-02-06 03:00:00 7.5 14 Sudoeste 28 Sudoeste 1.8 -- -- 100
2021-02-06 02:00:00 7.5 17 Sudoeste 31 Sudoeste 1 -- -- 100
2021-02-06 01:00:00 7.4 19 Sudoeste 34 Sur 1 -- -- 100
2021-02-06 00:00:00 7.4 21 Sudoeste 45 Sur 0.6 -- -- 100
2021-02-05 23:00:00 7.8 24 Sudoeste 50 Sudoeste 1 -- -- 100
2021-02-05 22:00:00 7.9 21 Sudoeste 44 Sudoeste 0.8 -- -- 100
2021-02-05 21:00:00 7.9 25 Sudoeste 48 Sudoeste 0.6 -- -- 100
2021-02-05 20:00:00 7.8 30 Sudoeste 50 Sudoeste 1 -- -- 100
2021-02-05 19:00:00 7.9 33 Sudoeste 53 Sur 1.2 -- -- 100
2021-02-05 18:00:00 8.3 13 Sudoeste 36 Sudoeste 1.2 -- -- 97
2021-02-05 17:00:00 8.3 15 Sudoeste 36 Sur 1.2 -- -- 93
2021-02-05 16:00:00 10.1 8 Sur 14 Sur 1.4 -- -- 97
2021-02-05 15:00:00 9.6 6 Nordeste 14 Nordeste 1 -- -- 97
2021-02-05 14:00:00 9.7 11 Nordeste 23 Sudoeste 3.2 -- -- 92
2021-02-05 13:00:00 9.6 12 Sudoeste 33 Nordeste 1.6 -- -- 97
2021-02-05 12:00:00 10.8 11 Nordeste 35 Norte 0 -- -- 89
2021-02-05 11:00:00 10.5 15 Nordeste 31 Norte 0 -- -- 92
2021-02-05 10:00:00 8.2 12 Nordeste 22 Norte 0 -- -- 100
2021-02-05 09:00:00 8.5 9 Nordeste 21 Norte 0 -- -- 98
2021-02-05 08:00:00 9.4 11 Norte 20 Norte 0 -- -- 92
2021-02-05 07:00:00 10.3 13 Norte 22 Norte 0 -- -- 88
2021-02-05 06:00:00 9.4 13 Nordeste 29 Norte 0 -- -- 94
2021-02-05 05:00:00 8.7 19 Norte 27 Norte 0 -- -- 99
2021-02-05 04:00:00 9.1 11 Nordeste 17 Norte 0 -- -- 97
2021-02-05 03:00:00 11 9 Nordeste 17 Este 0 -- -- 85
2021-02-05 02:00:00 9.1 4 Nordeste 15 Oeste 0 -- -- 93
2021-02-05 01:00:00 9.2 6 Sudoeste 19 Nordeste 0 -- -- 98
2021-02-05 00:00:00 8.8 3 Este 11 Noroeste 0 -- -- 100
2021-02-04 23:00:00 9 6 Nordeste 19 Este 0 -- -- 100
2021-02-04 22:00:00 9.4 8 Nordeste 14 Nordeste 0 -- -- 99
2021-02-04 21:00:00 9.2 7 Nordeste 12 Norte 0 -- -- 99
2021-02-04 20:00:00 9.9 4 Sur 15 Sudoeste 0 -- -- 96
2021-02-04 19:00:00 10.8 11 Sudoeste 20 Sur 0 -- -- 93
2021-02-04 18:00:00 11.2 12 Sudoeste 23 Sudoeste 0 -- -- 89
2021-02-04 17:00:00 11.6 16 Sudoeste 28 Sur 0 -- -- 85
2021-02-04 16:00:00 11.4 18 Sudoeste 32 Sudoeste 0 -- -- 87
2021-02-04 15:00:00 11.4 19 Sudoeste 38 Sudoeste 0 -- -- 86
2021-02-04 14:00:00 11.6 23 Sudoeste 39 Sudoeste 0 -- -- 85
2021-02-04 13:00:00 10.6 21 Sudoeste 34 Sur 0 -- -- 89
2021-02-04 12:00:00 9.1 19 Sur 35 Sudoeste 0 -- -- 98
2021-02-04 11:00:00 8.6 21 Sur 32 Sur 0 -- -- 100
2021-02-04 10:00:00 8.8 15 Sur 28 Sudoeste 0 -- -- 93
2021-02-04 09:00:00 8.3 14 Sur 27 Sur 0.2 -- -- 100
2021-02-04 08:00:00 8.6 11 Sur 23 Sur 0.2 -- -- 100
2021-02-04 07:00:00 8.6 12 Sur 23 Sudoeste 0 -- -- 100
2021-02-04 06:00:00 8.8 10 Sur 20 Sur 0.2 -- -- 100
2021-02-04 05:00:00 9.2 8 Sudoeste 21 Sudoeste 0.2 -- -- 100
2021-02-04 04:00:00 9.2 14 Sudoeste 21 Sudoeste 0 -- -- 100
2021-02-04 03:00:00 9.2 14 Sudoeste 20 Sudoeste 0 -- -- 100
2021-02-04 02:00:00 9.3 8 Sudoeste 25 Sudoeste 0 -- -- 100
2021-02-04 01:00:00 9.6 13 Sudoeste 22 Sudoeste 0 -- -- 99
2021-02-04 00:00:00 9.6 11 Sudoeste 18 Sudoeste 0 -- -- 97
2021-02-03 23:00:00 9.6 12 Sudoeste 22 Sudoeste 0 -- -- 99
2021-02-03 22:00:00 9.8 15 Sudoeste 24 Sudoeste 0 -- -- 98
2021-02-03 21:00:00 10.1 16 Sudoeste 27 Sudoeste 0 -- -- 97
2021-02-03 20:00:00 10.2 16 Sudoeste 24 Sudoeste 0 -- -- 93
2021-02-03 19:00:00 10.2 12 Sudoeste 20 Sudoeste 0 -- -- 94
2021-02-03 18:00:00 10.3 13 Sudoeste 21 Sudoeste 0 -- -- 94
2021-02-03 17:00:00 10.5 16 Sudoeste 28 Sudoeste 0 -- -- 92
2021-02-03 16:00:00 11.2 19 Sudoeste 27 Sudoeste 0 -- -- 88
2021-02-03 15:00:00 10.5 15 Sudoeste 23 Sudoeste 0 -- -- 89
2021-02-03 14:00:00 10.3 13 Sudoeste 22 Sudoeste 0 -- -- 89
2021-02-03 13:00:00 10.3 15 Sudoeste 23 Sur 0 -- -- 88
2021-02-03 12:00:00 9.8 14 Sudoeste 24 Sudoeste 0 -- -- 90
2021-02-03 11:00:00 9.7 16 Sudoeste 24 Sudoeste 0 -- -- 89
2021-02-03 10:00:00 9.5 14 Sudoeste 20 Sudoeste 0 -- -- 88
2021-02-03 09:00:00 7.5 8 Sudoeste 16 Oeste 0 -- -- 95
2021-02-03 08:00:00 7.4 11 Sudoeste 18 Sudoeste 0 -- -- 96
2021-02-03 07:00:00 7.4 9 Sudoeste 15 Sudoeste 0 -- -- 97
2021-02-03 06:00:00 8.4 9 Sudoeste 21 Sur 0 -- -- 96
2021-02-03 05:00:00 8.5 9 Sudoeste 15 Sudoeste 0 -- -- 95
2021-02-03 04:00:00 8.9 8 Sudoeste 20 Sudoeste 0 -- -- 98
2021-02-03 03:00:00 9.1 9 Sudoeste 15 Sudoeste 0 -- -- 96
2021-02-03 02:00:00 9.1 8 Sudoeste 17 Sudoeste 0 -- -- 100
2021-02-03 01:00:00 9.2 9 Sudoeste 18 Sudoeste 0 -- -- 100
2021-02-03 00:00:00 9.4 13 Sudoeste 22 Sudoeste 0 -- -- 100
2021-02-02 23:00:00 9.9 12 Sudoeste 20 Sudoeste 0 -- -- 98
2021-02-02 22:00:00 9.9 9 Sudoeste 15 Sudoeste 0 -- -- 99
2021-02-02 21:00:00 10 13 Sudoeste 21 Sudoeste 0 -- -- 98
2021-02-02 20:00:00 10.3 9 Sudoeste 16 Sudoeste 0 -- -- 94
2021-02-02 19:00:00 10.8 10 Sudoeste 17 Sudoeste 0 -- -- 90
2021-02-02 18:00:00 11.2 8 Sudoeste 17 Sudoeste 0 -- -- 88
2021-02-02 17:00:00 11.6 10 Sudoeste 20 Sudoeste 0 -- -- 84
2021-02-02 16:00:00 12.4 11 Sudoeste 20 Oeste 0 -- -- 80
2021-02-02 15:00:00 13.5 12 Sudoeste 20 Sudoeste 0 -- -- 78
2021-02-02 14:00:00 11.9 10 Sudoeste 19 Sudoeste 0 -- -- 86
2021-02-02 13:00:00 11 9 Sudoeste 17 Oeste 0 -- -- 93
2021-02-02 12:00:00 10.5 7 Sudoeste 12 Sudoeste 0 -- -- 94
2021-02-02 11:00:00 10.5 5 Sudoeste 10 Sudoeste 0 -- -- 93
2021-02-02 10:00:00 9.2 4 Sur 10 Sur 0 -- -- 100
2021-02-02 09:00:00 8.1 2 Sur 6 Sudoeste 0 -- -- 100
2021-02-02 08:00:00 8 4 Sudoeste 10 Oeste 0 -- -- 100
2021-02-02 07:00:00 8.1 6 Sudoeste 12 Sudoeste 0 -- -- 100
2021-02-02 06:00:00 8.5 2 Sudoeste 6 Norte 0 -- -- 100
2021-02-02 05:00:00 8.8 2 Norte 10 Oeste 0 -- -- 100
2021-02-02 04:00:00 8.3 5 Noroeste 17 Noroeste 0 -- -- 100
2021-02-02 03:00:00 8.5 9 Oeste 16 Oeste 0 -- -- 99
2021-02-02 02:00:00 8.1 3 Sudoeste 11 Oeste 0 -- -- 100
2021-02-02 01:00:00 8.7 6 Noroeste 12 Oeste 0 -- -- 97
2021-02-02 00:00:00 8.7 4 Noroeste 12 Noroeste 0 -- -- 94
2021-02-01 23:00:00 9.2 5 Noroeste 20 Oeste 0 -- -- 89
2021-02-01 22:00:00 9.1 10 Noroeste 22 Oeste 0 -- -- 88
2021-02-01 21:00:00 8.9 9 Oeste 17 Oeste 0 -- -- 89
2021-02-01 20:00:00 9.2 5 Noroeste 15 Oeste 0 -- -- 89
2021-02-01 19:00:00 10.5 3 Norte 21 Norte 0 -- -- 79
2021-02-01 18:00:00 13.1 9 Norte 17 Norte 0 -- -- 75
2021-02-01 17:00:00 14.5 9 Oeste 22 Oeste 0 -- -- 69
2021-02-01 16:00:00 14.4 10 Oeste 19 Oeste 0 -- -- 71
2021-02-01 15:00:00 14.2 8 Oeste 22 Oeste 0 -- -- 71
2021-02-01 14:00:00 14.1 10 Oeste 22 Oeste 0 -- -- 75
2021-02-01 13:00:00 12.9 12 Oeste 22 Noroeste 0 -- -- 81
2021-02-01 12:00:00 11.6 14 Oeste 22 Oeste 0 -- -- 84
2021-02-01 11:00:00 10.4 11 Oeste 25 Oeste 0 -- -- 91
2021-02-01 10:00:00 9.1 12 Oeste 24 Oeste 0 -- -- 93
2021-02-01 09:00:00 8.4 3 Sudoeste 30 Oeste 0 -- -- 96
2021-02-01 08:00:00 9.2 12 Oeste 29 Oeste 0 -- -- 99
2021-02-01 07:00:00 9.3 8 Oeste 19 Oeste 0 -- -- 100
2021-02-01 06:00:00 9.6 10 Oeste 22 Oeste 0 -- -- 100
2021-02-01 05:00:00 9.9 10 Oeste 29 Oeste 0 -- -- 98
2021-02-01 04:00:00 10.5 11 Oeste 30 Oeste 0 -- -- 98
2021-02-01 03:00:00 10.7 12 Oeste 36 Oeste 0 -- -- 100
2021-02-01 02:00:00 10.6 12 Noroeste 30 Noroeste 0.6 -- -- 100
2021-02-01 01:00:00 11.4 7 Oeste 24 Oeste 0.6 -- -- 100
2021-02-01 00:00:00 11.3 11 Oeste 27 Oeste 0.4 -- -- 100
2021-01-31 23:00:00 11 8 Oeste 22 Oeste 0.4 -- -- 100
2021-01-31 22:00:00 10.5 6 Oeste 21 Sudoeste 1.4 -- -- 100
2021-01-31 21:00:00 10.4 12 Sudoeste 23 Sudoeste 1.6 -- -- 100
2021-01-31 20:00:00 10.5 12 Sudoeste 25 Sudoeste 1 -- -- 100
2021-01-31 19:00:00 10.5 14 Sudoeste 26 Sudoeste 1.2 -- -- 100
2021-01-31 18:00:00 10.6 14 Sudoeste 26 Sudoeste 0 -- -- 100
2021-01-31 17:00:00 10.6 12 Sudoeste 28 Oeste 0 -- -- 100
2021-01-31 16:00:00 10.2 16 Sudoeste 28 Sudoeste 0.2 -- -- 100
2021-01-31 15:00:00 9.9 17 Sudoeste 30 Sudoeste 0 -- -- 98
2021-01-31 14:00:00 10.4 16 Sudoeste 27 Sudoeste 0 -- -- 89
2021-01-31 13:00:00 10.3 14 Sudoeste 27 Oeste 0 -- -- 88
2021-01-31 12:00:00 10.1 14 Sudoeste 29 Oeste 0 -- -- 88
2021-01-31 11:00:00 8.6 14 Oeste 31 Oeste 0 -- -- 98
2021-01-31 10:00:00 8.1 11 Oeste 28 Oeste 0 -- -- 100
2021-01-31 09:00:00 7.8 7 Oeste 21 Oeste 0 -- -- 100
2021-01-31 08:00:00 7.7 8 Noroeste 20 Oeste 0 -- -- 100
2021-01-31 07:00:00 7.5 10 Oeste 27 Oeste 0 -- -- 99
2021-01-31 06:00:00 7.1 11 Oeste 30 Noroeste 0 -- -- 96
2021-01-31 05:00:00 6.8 12 Oeste 26 Oeste 0 -- -- 96
2021-01-31 04:00:00 6.6 12 Oeste 31 Oeste 0 -- -- 94
2021-01-31 03:00:00 6.9 8 Oeste 31 Sudoeste 0 -- -- 94
2021-01-31 02:00:00 6.9 11 Oeste 27 Oeste 0 -- -- 92
2021-01-31 01:00:00 7.1 12 Oeste 28 Oeste 0 -- -- 93
2021-01-31 00:00:00 6.8 8 Oeste 22 Oeste 0 -- -- 94